createdAt,value
2023-03-29T00:00:49.997Z,2.87
2023-03-29T00:03:16.801Z,2.89
2023-03-29T00:05:44.788Z,2.88
2023-03-29T00:08:14.538Z,2.89
2023-03-29T00:10:41.865Z,2.87
2023-03-29T00:13:08.483Z,2.84
2023-03-29T00:15:34.804Z,2.79
2023-03-29T00:18:01.204Z,2.79
2023-03-29T00:20:28.755Z,2.78
2023-03-29T00:22:55.317Z,2.72
2023-03-29T00:25:21.625Z,2.67
2023-03-29T00:27:47.952Z,2.60
2023-03-29T00:30:14.974Z,2.57
2023-03-29T00:32:41.891Z,2.55
2023-03-29T00:35:09.069Z,2.50
2023-03-29T00:37:35.426Z,2.53
2023-03-29T00:40:01.857Z,2.56
2023-03-29T00:42:28.241Z,2.52
2023-03-29T00:44:57.620Z,2.43
2023-03-29T00:47:26.464Z,2.45
2023-03-29T00:49:53.327Z,2.39
2023-03-29T00:52:21.417Z,2.39
2023-03-29T00:54:49.791Z,2.27
2023-03-29T00:57:17.902Z,2.14
2023-03-29T00:59:45.085Z,2.05
2023-03-29T01:02:11.405Z,2.03
2023-03-29T01:04:45.477Z,2.05
2023-03-29T01:07:13.596Z,2.06
2023-03-29T01:09:42.949Z,2.05
2023-03-29T01:12:13.483Z,1.97
2023-03-29T01:14:46.019Z,1.93
2023-03-29T01:17:12.854Z,1.89
2023-03-29T01:19:43.106Z,1.81
2023-03-29T01:22:15.648Z,1.78
2023-03-29T01:25:20.599Z,1.76
2023-03-29T01:28:10.003Z,1.75
2023-03-29T01:30:41.093Z,1.72
2023-03-29T01:33:23.385Z,1.74
2023-03-29T01:35:57.754Z,1.72
2023-03-29T01:38:30.561Z,1.76
2023-03-29T01:40:56.967Z,1.75
2023-03-29T01:43:45.677Z,1.75
2023-03-29T01:46:15.897Z,1.79
2023-03-29T01:48:49.256Z,1.78
2023-03-29T01:51:25.200Z,1.79
2023-03-29T01:54:13.815Z,1.76
2023-03-29T01:56:42.139Z,1.76
2023-03-29T01:59:11.265Z,1.75
2023-03-29T02:01:40.732Z,1.74
2023-03-29T02:04:10.491Z,1.74
2023-03-29T02:06:37.744Z,1.73
2023-03-29T02:09:04.786Z,1.72
2023-03-29T02:11:31.170Z,1.73
2023-03-29T02:13:57.662Z,1.72
2023-03-29T02:16:24.268Z,1.73
2023-03-29T02:18:52.797Z,1.73
2023-03-29T02:21:24.531Z,1.74
2023-03-29T02:23:54.291Z,1.71
2023-03-29T02:26:21.928Z,1.73
2023-03-29T02:28:48.263Z,1.71
2023-03-29T02:31:19.020Z,1.71
2023-03-29T02:33:48.853Z,1.73
2023-03-29T02:36:18.213Z,1.73
2023-03-29T02:38:44.904Z,1.73
2023-03-29T02:41:12.148Z,1.73
2023-03-29T02:43:39.186Z,1.72
2023-03-29T02:46:07.684Z,1.72
2023-03-29T02:48:35.391Z,1.71
2023-03-29T02:51:03.751Z,1.68
2023-03-29T02:53:33.880Z,1.66
2023-03-29T02:56:02.210Z,1.66
2023-03-29T02:58:28.899Z,1.67
2023-03-29T03:00:57.343Z,1.66
2023-03-29T03:03:23.966Z,1.65
2023-03-29T03:05:52.321Z,1.61
2023-03-29T03:08:18.760Z,1.62
2023-03-29T03:10:46.686Z,1.63
2023-03-29T03:13:13.017Z,1.64
2023-03-29T03:15:42.743Z,1.67
2023-03-29T03:18:10.494Z,1.69
2023-03-29T03:20:36.902Z,1.71
2023-03-29T03:23:03.386Z,1.73
2023-03-29T03:25:30.142Z,1.73
2023-03-29T03:27:57.150Z,1.77
2023-03-29T03:30:23.513Z,1.77
2023-03-29T03:32:49.960Z,1.79
2023-03-29T03:35:16.318Z,1.81
2023-03-29T03:37:45.236Z,1.81
2023-03-29T03:40:11.881Z,1.84
2023-03-29T03:42:39.209Z,1.88
2023-03-29T03:45:05.987Z,1.87
2023-03-29T03:47:32.506Z,1.87
2023-03-29T03:49:58.873Z,1.87
2023-03-29T03:52:25.286Z,1.87
2023-03-29T03:54:51.728Z,1.83
2023-03-29T03:57:18.637Z,1.85
2023-03-29T03:59:47.583Z,1.83
2023-03-29T04:02:13.925Z,1.85
2023-03-29T04:04:40.627Z,1.83
2023-03-29T04:07:07.116Z,1.81
2023-03-29T04:09:33.634Z,1.79
2023-03-29T04:12:01.489Z,1.79
2023-03-29T04:14:27.969Z,1.78
2023-03-29T04:16:54.884Z,1.80
2023-03-29T04:19:21.724Z,1.80
2023-03-29T04:21:49.475Z,1.81
2023-03-29T04:24:17.208Z,1.83
2023-03-29T04:26:43.740Z,1.82
2023-03-29T04:29:10.047Z,1.82
2023-03-29T04:31:36.403Z,1.82
2023-03-29T04:34:02.702Z,1.85
2023-03-29T04:36:29.015Z,1.87
2023-03-29T04:38:55.317Z,1.85
2023-03-29T04:41:21.664Z,1.84
2023-03-29T04:43:48.071Z,1.87
2023-03-29T04:46:15.010Z,1.86
2023-03-29T04:48:41.888Z,1.87
2023-03-29T04:51:08.228Z,1.87
2023-03-29T04:53:34.572Z,1.89
2023-03-29T04:56:00.956Z,1.93
2023-03-29T04:58:32.012Z,1.92
2023-03-29T05:00:58.962Z,1.94
2023-03-29T05:03:25.513Z,1.97
2023-03-29T05:05:51.877Z,1.98
2023-03-29T05:08:18.210Z,1.99
2023-03-29T05:10:45.493Z,2.01
2023-03-29T05:13:11.837Z,1.99
2023-03-29T05:15:39.034Z,2.00
2023-03-29T05:18:07.184Z,2.03
2023-03-29T05:20:33.529Z,2.03
2023-03-29T05:23:00.409Z,2.03
2023-03-29T05:25:26.987Z,2.06
2023-03-29T05:27:53.919Z,2.04
2023-03-29T05:30:20.603Z,2.05
2023-03-29T05:32:47.050Z,2.08
2023-03-29T05:35:13.554Z,2.07
2023-03-29T05:37:40.004Z,2.07
2023-03-29T05:40:08.453Z,2.08
2023-03-29T05:42:34.913Z,2.10
2023-03-29T05:45:01.339Z,2.12
2023-03-29T05:47:28.449Z,2.10
2023-03-29T05:49:54.921Z,2.12
2023-03-29T05:52:21.223Z,2.13
2023-03-29T05:54:47.964Z,2.14
2023-03-29T05:57:14.307Z,2.10
2023-03-29T05:59:40.693Z,2.12
2023-03-29T06:02:07.207Z,2.14
2023-03-29T06:04:33.870Z,2.15
2023-03-29T06:07:02.132Z,2.18
2023-03-29T06:09:28.694Z,2.22
2023-03-29T06:11:56.426Z,2.27
2023-03-29T06:14:24.794Z,2.31
2023-03-29T06:16:51.333Z,2.34
2023-03-29T06:19:18.736Z,2.31
2023-03-29T06:21:45.166Z,2.34
2023-03-29T06:24:11.450Z,2.39
2023-03-29T06:26:37.784Z,2.43
2023-03-29T06:29:04.352Z,2.49
2023-03-29T06:31:31.290Z,2.55
2023-03-29T06:33:58.272Z,2.64
2023-03-29T06:36:24.641Z,2.72
2023-03-29T06:38:50.989Z,2.86
2023-03-29T06:41:17.322Z,2.95
2023-03-29T06:43:43.660Z,3.01
2023-03-29T06:46:12.046Z,3.08
2023-03-29T06:48:39.243Z,3.08
2023-03-29T06:51:05.955Z,3.07
2023-03-29T06:53:32.626Z,3.12
2023-03-29T06:55:59.669Z,3.16
2023-03-29T06:58:26.111Z,3.24
2023-03-29T07:00:53.821Z,3.23
2023-03-29T07:03:23.121Z,3.31
2023-03-29T07:05:51.907Z,3.35
2023-03-29T07:08:18.793Z,3.39
2023-03-29T07:10:47.401Z,3.41
2023-03-29T07:13:14.589Z,3.49
2023-03-29T07:15:41.625Z,3.46
2023-03-29T07:18:08.909Z,3.49
2023-03-29T07:20:35.582Z,3.57
2023-03-29T07:23:01.915Z,3.64
2023-03-29T07:25:29.974Z,3.69
2023-03-29T07:27:56.803Z,3.74
2023-03-29T07:30:24.467Z,3.72
2023-03-29T07:32:51.396Z,3.76
2023-03-29T07:35:18.061Z,3.86
2023-03-29T07:37:45.378Z,3.89
2023-03-29T07:40:16.092Z,3.95
2023-03-29T07:42:43.870Z,3.95
2023-03-29T07:45:10.778Z,4.01
2023-03-29T07:47:37.257Z,4.06
2023-03-29T07:50:04.798Z,4.16
2023-03-29T07:52:31.527Z,4.08
2023-03-29T07:54:58.035Z,4.17
2023-03-29T07:57:25.111Z,4.20
2023-03-29T07:59:51.753Z,4.20
2023-03-29T08:02:18.099Z,4.13
2023-03-29T08:04:44.905Z,4.13
2023-03-29T08:07:12.536Z,4.21
2023-03-29T08:09:38.886Z,4.22
2023-03-29T08:12:05.344Z,4.26
2023-03-29T08:14:31.880Z,4.35
2023-03-29T08:16:58.260Z,4.32
2023-03-29T08:19:24.738Z,4.31
2023-03-29T08:21:51.633Z,4.37
2023-03-29T08:24:20.416Z,4.44
2023-03-29T08:26:48.783Z,4.61
2023-03-29T08:29:15.173Z,4.69
2023-03-29T08:31:41.532Z,4.73
2023-03-29T08:34:08.933Z,4.87
2023-03-29T08:36:35.359Z,5.00
2023-03-29T08:39:03.304Z,4.98
2023-03-29T08:41:48.102Z,5.07
2023-03-29T08:44:23.648Z,5.00
2023-03-29T08:46:49.978Z,4.98
2023-03-29T08:49:16.645Z,4.99
2023-03-29T08:51:46.426Z,5.01
2023-03-29T08:54:27.482Z,4.96
2023-03-29T08:57:07.474Z,5.15
2023-03-29T08:59:34.718Z,5.18
2023-03-29T09:02:02.522Z,5.35
2023-03-29T09:04:31.662Z,5.49
2023-03-29T09:06:58.129Z,5.40
2023-03-29T09:09:28.413Z,5.49
2023-03-29T09:12:03.865Z,5.37
2023-03-29T09:14:42.848Z,5.58
2023-03-29T09:17:27.881Z,5.50
2023-03-29T09:20:12.596Z,5.55
2023-03-29T09:22:48.290Z,5.40
2023-03-29T09:25:24.880Z,5.27
2023-03-29T09:28:04.709Z,5.24
2023-03-29T09:30:41.503Z,5.29
2023-03-29T09:33:08.137Z,5.29
2023-03-29T09:35:37.458Z,5.25
2023-03-29T09:38:05.701Z,5.37
2023-03-29T09:40:42.616Z,5.50
2023-03-29T09:43:10.602Z,5.49
2023-03-29T09:45:38.544Z,5.51
2023-03-29T09:48:14.874Z,5.49
2023-03-29T09:50:43.188Z,5.53
2023-03-29T09:53:09.798Z,5.56
2023-03-29T09:55:39.518Z,5.66
2023-03-29T09:58:16.866Z,5.77
2023-03-29T10:00:43.414Z,5.90
2023-03-29T10:03:10.693Z,5.94
2023-03-29T10:05:37.826Z,5.96
2023-03-29T10:08:13.968Z,5.94
2023-03-29T10:10:41.437Z,5.88
2023-03-29T10:13:13.344Z,5.80
2023-03-29T10:15:39.722Z,5.80
2023-03-29T10:18:10.817Z,5.80
2023-03-29T10:20:39.180Z,5.88
2023-03-29T10:23:06.834Z,6.08
2023-03-29T10:25:34.303Z,6.38
2023-03-29T10:28:09.990Z,6.50
2023-03-29T10:30:37.880Z,6.47
2023-03-29T10:33:06.409Z,6.50
2023-03-29T10:35:41.639Z,6.50
2023-03-29T10:38:16.374Z,6.46
2023-03-29T10:40:45.071Z,6.47
2023-03-29T10:43:20.577Z,6.42
2023-03-29T10:45:51.328Z,6.41
2023-03-29T10:48:19.323Z,6.51
2023-03-29T10:50:49.446Z,6.61
2023-03-29T10:53:20.002Z,6.53
2023-03-29T10:56:04.600Z,6.47
2023-03-29T10:58:30.910Z,6.48
2023-03-29T11:00:57.988Z,6.34
2023-03-29T11:03:27.332Z,6.35
2023-03-29T11:06:11.361Z,6.34
2023-03-29T11:08:43.619Z,6.31
2023-03-29T11:11:09.947Z,6.40
2023-03-29T11:13:51.374Z,6.47
2023-03-29T11:16:28.965Z,6.52
2023-03-29T11:19:27.873Z,6.52
2023-03-29T11:22:06.684Z,6.72
2023-03-29T11:24:43.692Z,6.76
2023-03-29T11:27:23.156Z,6.87
2023-03-29T11:29:49.590Z,7.09
2023-03-29T11:32:21.128Z,7.27
2023-03-29T11:35:06.387Z,7.49
2023-03-29T11:37:38.080Z,7.45
2023-03-29T11:40:31.951Z,7.52
2023-03-29T11:43:00.841Z,7.58
2023-03-29T11:45:34.160Z,7.64
2023-03-29T11:48:02.709Z,7.49
2023-03-29T11:50:37.314Z,7.41
2023-03-29T11:53:08.489Z,7.48
2023-03-29T11:55:36.510Z,7.54
2023-03-29T11:58:06.403Z,7.70
2023-03-29T12:00:36.442Z,7.65
2023-03-29T12:03:07.583Z,7.73
2023-03-29T12:05:42.127Z,7.71
2023-03-29T12:08:27.263Z,7.60
2023-03-29T12:10:53.530Z,7.59
2023-03-29T12:13:31.285Z,7.51
2023-03-29T12:15:57.574Z,7.46
2023-03-29T12:18:36.675Z,7.48
2023-03-29T12:21:06.764Z,7.49
2023-03-29T12:23:33.678Z,7.48
2023-03-29T12:26:00.538Z,7.44
2023-03-29T12:28:36.637Z,7.48
2023-03-29T12:31:03.168Z,7.52
2023-03-29T12:33:40.874Z,7.50
2023-03-29T12:36:16.382Z,7.52
2023-03-29T12:38:43.936Z,7.62
2023-03-29T12:41:20.611Z,7.59
2023-03-29T12:43:47.188Z,7.63
2023-03-29T12:46:16.634Z,7.62
2023-03-29T12:48:44.327Z,7.57
2023-03-29T12:51:13.418Z,7.64
2023-03-29T12:53:42.831Z,7.61
2023-03-29T12:56:12.360Z,7.74
2023-03-29T12:58:38.899Z,7.70
2023-03-29T13:01:10.256Z,7.59
2023-03-29T13:03:39.739Z,7.63
2023-03-29T13:06:10.085Z,7.61
2023-03-29T13:08:36.490Z,7.62
2023-03-29T13:11:04.466Z,7.63
2023-03-29T13:13:33.701Z,7.52
2023-03-29T13:16:11.761Z,7.57
2023-03-29T13:18:38.067Z,7.57
2023-03-29T13:21:07.278Z,7.60
2023-03-29T13:23:51.867Z,7.63
2023-03-29T13:26:34.035Z,7.67
2023-03-29T13:29:26.791Z,7.86
2023-03-29T13:31:59.048Z,7.98
2023-03-29T13:34:32.001Z,7.96
2023-03-29T13:37:04.319Z,8.04
2023-03-29T13:39:32.179Z,7.98
2023-03-29T13:42:08.803Z,7.95
2023-03-29T13:44:46.137Z,7.83
2023-03-29T13:47:16.425Z,7.86
2023-03-29T13:49:45.427Z,7.85
2023-03-29T13:52:16.254Z,8.04
2023-03-29T13:54:51.921Z,8.13
2023-03-29T13:57:18.409Z,8.10
2023-03-29T13:59:49.261Z,8.14
2023-03-29T14:02:42.609Z,8.27
2023-03-29T14:05:13.513Z,8.28
2023-03-29T14:07:42.951Z,8.32
2023-03-29T14:10:14.188Z,8.43
2023-03-29T14:12:42.162Z,8.51
2023-03-29T14:15:19.365Z,8.57
2023-03-29T14:17:46.737Z,8.57
2023-03-29T14:20:14.807Z,8.63
2023-03-29T14:22:42.295Z,8.62
2023-03-29T14:25:17.049Z,8.77
2023-03-29T14:27:43.519Z,8.84
2023-03-29T14:30:29.086Z,8.59
2023-03-29T14:32:56.721Z,8.67
2023-03-29T14:35:31.385Z,8.67
2023-03-29T14:37:58.346Z,8.67
2023-03-29T14:40:24.674Z,8.54
2023-03-29T14:42:51.175Z,8.23
2023-03-29T14:45:20.609Z,8.07
2023-03-29T14:47:47.374Z,8.07
2023-03-29T14:50:26.317Z,8.01
2023-03-29T14:52:52.882Z,7.79
2023-03-29T14:55:23.574Z,7.74
2023-03-29T14:57:51.343Z,7.72
2023-03-29T15:00:44.033Z,7.64
2023-03-29T15:03:14.658Z,7.59
2023-03-29T15:05:42.462Z,7.63
2023-03-29T15:08:13.325Z,7.63
2023-03-29T15:10:42.916Z,7.60
2023-03-29T15:13:20.903Z,7.65
2023-03-29T15:15:50.984Z,7.64
2023-03-29T15:18:19.002Z,7.69
2023-03-29T15:20:45.640Z,7.67
2023-03-29T15:23:14.977Z,7.59
2023-03-29T15:25:53.629Z,7.58
2023-03-29T15:28:28.262Z,7.58
2023-03-29T15:31:07.172Z,7.56
2023-03-29T15:33:36.246Z,7.55
2023-03-29T15:36:03.613Z,7.57
2023-03-29T15:38:36.712Z,7.64
2023-03-29T15:41:10.588Z,7.74
2023-03-29T15:43:37.213Z,7.82
2023-03-29T15:46:03.939Z,7.78
2023-03-29T15:48:30.648Z,7.85
2023-03-29T15:50:59.028Z,7.98
2023-03-29T15:53:27.872Z,8.04
2023-03-29T15:55:55.162Z,8.05
2023-03-29T15:58:25.626Z,7.97
2023-03-29T16:00:54.892Z,7.89
2023-03-29T16:03:22.139Z,7.81
2023-03-29T16:05:48.530Z,7.85
2023-03-29T16:08:14.928Z,7.89
2023-03-29T16:10:43.688Z,7.90
2023-03-29T16:13:10.963Z,7.91
2023-03-29T16:15:37.501Z,7.88
2023-03-29T16:18:03.906Z,7.82
2023-03-29T16:20:30.379Z,7.81
2023-03-29T16:22:56.697Z,7.84
2023-03-29T16:25:23.368Z,7.85
2023-03-29T16:27:50.702Z,7.88
2023-03-29T16:30:17.014Z,7.88
2023-03-29T16:32:43.489Z,7.75
2023-03-29T16:35:36.328Z,7.71
2023-03-29T16:38:02.867Z,7.70
2023-03-29T16:40:29.228Z,7.70
2023-03-29T16:42:55.752Z,7.71
2023-03-29T16:45:22.124Z,7.71
2023-03-29T16:47:48.547Z,7.74
2023-03-29T16:50:16.234Z,7.76
2023-03-29T16:52:42.674Z,7.77
2023-03-29T16:55:12.094Z,7.78
2023-03-29T16:57:42.337Z,7.78
2023-03-29T17:00:10.828Z,7.78
2023-03-29T17:02:37.494Z,7.75
2023-03-29T17:05:04.063Z,7.75
2023-03-29T17:07:30.534Z,7.74
2023-03-29T17:09:56.837Z,7.73
2023-03-29T17:12:23.474Z,7.72
2023-03-29T17:14:50.177Z,7.73
2023-03-29T17:17:16.553Z,7.73
2023-03-29T17:19:42.882Z,7.74
2023-03-29T17:22:09.344Z,7.73
2023-03-29T17:24:35.993Z,7.72
2023-03-29T17:27:02.302Z,7.70
2023-03-29T17:29:28.710Z,7.70
2023-03-29T17:31:55.033Z,7.70
2023-03-29T17:34:21.388Z,7.68
2023-03-29T17:36:48.830Z,7.65
2023-03-29T17:39:18.734Z,7.61
2023-03-29T17:41:46.451Z,7.64
2023-03-29T17:44:12.798Z,7.64
2023-03-29T17:46:39.275Z,7.64
2023-03-29T17:49:05.783Z,7.61
2023-03-29T17:51:32.096Z,7.59
2023-03-29T17:53:58.536Z,7.59
2023-03-29T17:56:26.264Z,7.59
2023-03-29T17:58:52.665Z,7.57
2023-03-29T18:01:19.611Z,7.51
2023-03-29T18:03:47.741Z,7.48
2023-03-29T18:06:16.281Z,7.44
2023-03-29T18:08:42.610Z,7.41
2023-03-29T18:11:11.679Z,7.37
2023-03-29T18:13:40.753Z,7.34
2023-03-29T18:16:08.271Z,7.28
2023-03-29T18:18:34.900Z,7.23
2023-03-29T18:21:01.580Z,7.21
2023-03-29T18:23:27.919Z,7.15
2023-03-29T18:26:02.854Z,7.14
2023-03-29T18:28:29.735Z,7.10
2023-03-29T18:30:56.249Z,7.07
2023-03-29T18:33:22.592Z,7.10
2023-03-29T18:35:50.562Z,7.13
2023-03-29T18:38:17.900Z,7.13
2023-03-29T18:40:46.620Z,7.15
2023-03-29T18:43:13.168Z,7.13
2023-03-29T18:45:39.578Z,7.10
2023-03-29T18:48:07.893Z,7.06
2023-03-29T18:50:34.738Z,7.05
2023-03-29T18:53:01.486Z,7.02
2023-03-29T18:55:28.334Z,7.00
2023-03-29T18:57:54.691Z,6.99
2023-03-29T19:00:21.049Z,6.97
2023-03-29T19:02:47.452Z,6.95
2023-03-29T19:05:13.932Z,6.92
2023-03-29T19:07:40.394Z,6.89
2023-03-29T19:10:08.041Z,6.91
2023-03-29T19:12:34.494Z,6.95
2023-03-29T19:15:01.057Z,6.93
2023-03-29T19:17:28.159Z,6.95
2023-03-29T19:19:56.311Z,6.96
2023-03-29T19:22:22.716Z,6.95
2023-03-29T19:24:49.042Z,6.92
2023-03-29T19:27:15.439Z,6.91
2023-03-29T19:29:42.136Z,6.88
2023-03-29T19:32:08.569Z,6.85
2023-03-29T19:34:34.968Z,6.86
2023-03-29T19:37:01.479Z,6.87
2023-03-29T19:39:29.399Z,6.91
2023-03-29T19:41:56.121Z,6.88
2023-03-29T19:44:23.584Z,6.83
2023-03-29T19:46:50.781Z,6.79
2023-03-29T19:49:17.210Z,6.78
2023-03-29T19:51:43.578Z,6.80
2023-03-29T19:54:12.740Z,6.83
2023-03-29T19:56:39.384Z,6.83
2023-03-29T19:59:05.759Z,6.85
2023-03-29T20:01:32.416Z,6.85
2023-03-29T20:03:58.807Z,6.90
2023-03-29T20:06:25.121Z,6.91
2023-03-29T20:08:52.843Z,6.91
2023-03-29T20:11:23.975Z,6.89
2023-03-29T20:13:50.448Z,6.93
2023-03-29T20:16:18.352Z,6.96
2023-03-29T20:18:45.195Z,6.98
2023-03-29T20:21:13.974Z,6.99
2023-03-29T20:23:40.510Z,7.00
2023-03-29T20:26:07.496Z,6.98
2023-03-29T20:28:34.475Z,6.97
2023-03-29T20:31:05.304Z,6.96
2023-03-29T20:33:31.856Z,6.93
2023-03-29T20:35:58.530Z,6.91
2023-03-29T20:38:25.201Z,6.87
2023-03-29T20:40:51.529Z,6.87
2023-03-29T20:43:20.560Z,6.84
2023-03-29T20:45:53.537Z,6.80
2023-03-29T20:48:23.052Z,6.79
2023-03-29T20:50:50.002Z,6.75
2023-03-29T20:53:16.344Z,6.74
2023-03-29T20:55:42.743Z,6.74
2023-03-29T20:58:09.427Z,6.74
2023-03-29T21:00:37.534Z,6.75
2023-03-29T21:03:04.120Z,6.76
2023-03-29T21:05:32.162Z,6.79
2023-03-29T21:07:58.505Z,6.80
2023-03-29T21:10:25.753Z,6.80
2023-03-29T21:12:54.214Z,6.84
2023-03-29T21:15:20.690Z,6.85
2023-03-29T21:17:47.743Z,6.86
2023-03-29T21:20:14.854Z,6.85
2023-03-29T21:22:42.939Z,6.85
2023-03-29T21:25:10.640Z,6.84
2023-03-29T21:27:37.450Z,6.84
2023-03-29T21:30:04.765Z,6.83
2023-03-29T21:32:31.422Z,6.84
2023-03-29T21:34:57.962Z,6.83
2023-03-29T21:37:24.352Z,6.84
2023-03-29T21:39:50.907Z,6.84
2023-03-29T21:42:17.320Z,6.83
2023-03-29T21:44:44.319Z,6.83
2023-03-29T21:47:10.724Z,6.83
2023-03-29T21:49:37.586Z,6.83
2023-03-29T21:52:03.962Z,6.83
2023-03-29T21:54:30.420Z,6.82
2023-03-29T21:56:56.788Z,6.82
2023-03-29T21:59:23.105Z,6.82
2023-03-29T22:01:49.431Z,6.82
2023-03-29T22:04:25.568Z,6.82
2023-03-29T22:09:27.499Z,6.84
2023-03-29T22:11:53.827Z,6.83
2023-03-29T22:14:20.176Z,6.85
2023-03-29T22:16:47.064Z,6.85
2023-03-29T22:19:13.492Z,6.85
2023-03-29T22:21:40.725Z,6.85
2023-03-29T22:24:07.333Z,6.87
2023-03-29T22:26:33.698Z,6.88
2023-03-29T22:29:00.738Z,6.88
2023-03-29T22:31:28.738Z,6.87
2023-03-29T22:33:55.595Z,6.88
2023-03-29T22:36:21.950Z,6.89
2023-03-29T22:38:48.766Z,6.88
2023-03-29T22:41:15.796Z,6.88
2023-03-29T22:43:42.120Z,6.87
2023-03-29T22:46:09.754Z,6.86
2023-03-29T22:48:36.272Z,6.85
2023-03-29T22:51:03.194Z,6.85
2023-03-29T22:53:29.861Z,6.81
2023-03-29T22:55:56.345Z,6.81
2023-03-29T22:58:22.934Z,6.80
2023-03-29T23:00:49.641Z,6.76
2023-03-29T23:03:15.946Z,6.76
2023-03-29T23:05:42.546Z,6.76
2023-03-29T23:08:08.879Z,6.76
2023-03-29T23:10:35.476Z,6.78
2023-03-29T23:13:10.914Z,6.79
2023-03-29T23:15:38.530Z,6.81
2023-03-29T23:18:05.623Z,6.81
2023-03-29T23:20:32.522Z,6.84
2023-03-29T23:22:59.441Z,6.84
2023-03-29T23:25:26.442Z,6.84
2023-03-29T23:27:53.586Z,6.84
2023-03-29T23:30:21.630Z,6.83
2023-03-29T23:32:48.626Z,6.83
2023-03-29T23:35:15.764Z,6.83
2023-03-29T23:37:42.950Z,6.82
2023-03-29T23:40:11.716Z,6.82
2023-03-29T23:42:39.297Z,6.83
2023-03-29T23:45:06.669Z,6.81
2023-03-29T23:47:33.422Z,6.82
2023-03-29T23:50:02.057Z,6.83
2023-03-29T23:52:29.593Z,6.84
2023-03-29T23:54:56.102Z,6.86
2023-03-29T23:57:22.817Z,6.87
2023-03-29T23:59:52.611Z,6.85
